Time;durP1;ratioP1;P1;durP2;ratioP2;P2;SDS_P1;SDS_P2;PMS_P1;PMS_P2;Temp;Humidity;BMP_temperature;BMP_pressure;BME280_temperature;BME280_humidity;BME280_pressure;Samples;Min_cycle;Max_cycle;Signal;HPM_P1;HPM_P2
2021/12/24 00:00:03;;;;;;;;;;;;;;;;;;4381258;32;19997;-72
2021/12/24 00:02:30;;;;;;;;;;;;;;;;;;4393846;32;19981;-70
2021/12/24 00:04:56;;;;;;;;;;;;;;;;;;4393031;32;20398;-71
2021/12/24 00:07:22;;;;;;;;;;;;;;;;;;4393367;32;19988;-71
2021/12/24 00:09:49;;;;;;;;;;;;;;;;;;4393128;32;19993;-71
2021/12/24 00:12:19;;;;;;;;;;;;;;;;;;4380958;32;19995;-71
2021/12/24 00:14:51;;;;;;;;;;;;;;;;;;4393223;32;19993;-70
2021/12/24 00:17:24;;;;;;;;;;;;;;;;;;4392496;32;20060;-72
2021/12/24 00:20:13;;;;;;;;;;;;;;;;;;4369222;32;20053;-72
2021/12/24 00:36:10;;;;;;;;;;;;;;;;;;4395412;32;19976;-72
2021/12/24 00:38:37;;;;;;;;;;;;;;;;;;4380376;32;20456;-70
2021/12/24 00:41:05;;;;;;;;;;;;;;;;;;4367966;32;20034;-71
2021/12/24 00:43:32;;;;;;;;;;;;;;;;;;4380145;32;19977;-72
2021/12/24 00:45:58;;;;;;;;;;;;;;;;;;4381352;32;19985;-71
2021/12/24 00:48:25;;;;;;;;;;;;;;;;;;4393372;32;20081;-72
2021/12/24 00:51:06;;;;;;;;;;;;;;;;;;4380050;32;19989;-71
2021/12/24 00:56:10;;;;;;;;;;;;;;;;;;4392595;32;20016;-70
2021/12/24 00:58:37;;;;;;;;;;;;;;;;;;4380286;32;19969;-71
2021/12/24 01:01:04;;;;;;;;;;;;;;;;;;4393298;32;19977;-71
2021/12/24 01:03:30;;;;;;;;;;;;;;;;;;4367427;32;20439;-71
2021/12/24 01:05:57;;;;;;;;;;;;;;;;;;4380728;32;19976;-72
2021/12/24 01:08:23;;;;;;;;;;;;;;;;;;4392644;32;19992;-71
2021/12/24 01:10:53;;;;;;;;;;;;;;;;;;4393368;32;19988;-72
2021/12/24 01:13:19;;;;;;;;;;;;;;;;;;4393089;32;20441;-72
2021/12/24 01:15:55;;;;;;;;;;;;;;;;;;4392205;32;19977;-71
2021/12/24 01:23:57;;;;;;;;;;;;;;;;;;4394553;32;19977;-70
2021/12/24 01:26:39;;;;;;;;;;;;;;;;;;4392750;32;19979;-71
2021/12/24 01:40:23;;;;;;;;;;;;;;;;;;4406963;32;19981;-71
2021/12/24 01:42:49;;;;;;;;;;;;;;;;;;4380125;32;20001;-72
2021/12/24 01:45:16;;;;;;;;;;;;;;;;;;4391999;32;20411;-72
2021/12/24 01:47:42;;;;;;;;;;;;;;;;;;4392841;32;19961;-71
2021/12/24 01:50:09;;;;;;;;;;;;;;;;;;4379775;32;20382;-72
2021/12/24 01:52:37;;;;;;;;;;;;;;;;;;4379942;32;19993;-72
2021/12/24 01:55:05;;;;;;;;;;;;;;;;;;4392543;32;19969;-72
2021/12/24 01:57:32;;;;;;;;;;;;;;;;;;4379844;32;19966;-71
2021/12/24 01:59:59;;;;;;;;;;;;;;;;;;4366956;32;20053;-71
2021/12/24 02:02:27;;;;;;;;;;;;;;;;;;4367201;32;19976;-72
2021/12/24 02:04:54;;;;;;;;;;;;;;;;;;4395273;32;20415;-71
2021/12/24 02:07:20;;;;;;;;;;;;;;;;;;4409384;32;20000;-71
2021/12/24 02:09:47;;;;;;;;;;;;;;;;;;4382402;32;19999;-70
2021/12/24 02:12:15;;;;;;;;;;;;;;;;;;4395403;32;19988;-71
2021/12/24 02:14:44;;;;;;;;;;;;;;;;;;4382476;32;20410;-71
2021/12/24 02:17:45;;;;;;;;;;;;;;;;;;4382220;32;19977;-72
2021/12/24 02:28:38;;;;;;;;;;;;;;;;;;4409037;32;20061;-72
2021/12/24 02:31:08;;;;;;;;;;;;;;;;;;4408862;32;20417;-72
2021/12/24 02:33:35;;;;;;;;;;;;;;;;;;4369411;32;20399;-71
2021/12/24 02:36:02;;;;;;;;;;;;;;;;;;4394536;32;20015;-72
2021/12/24 02:38:28;;;;;;;;;;;;;;;;;;4408823;32;19986;-71
2021/12/24 02:40:55;;;;;;;;;;;;;;;;;;4408897;32;19989;-72
2021/12/24 02:43:23;;;;;;;;;;;;;;;;;;4382223;32;20046;-71
2021/12/24 02:45:53;;;;;;;;;;;;;;;;;;4369634;32;20336;-70
2021/12/24 02:56:26;;;;;;;;;;;;;;;;;;4408607;32;20049;-71
2021/12/24 02:58:53;;;;;;;;;;;;;;;;;;4395270;32;19985;-71
2021/12/24 03:01:23;;;;;;;;;;;;;;;;;;4394735;32;19974;-71
2021/12/24 03:03:51;;;;;;;;;;;;;;;;;;4369237;32;20017;-72
2021/12/24 03:06:21;;;;;;;;;;;;;;;;;;4381730;32;20049;-71
2021/12/24 03:08:48;;;;;;;;;;;;;;;;;;4381946;32;20459;-72
2021/12/24 03:11:15;;;;;;;;;;;;;;;;;;4394760;32;19995;-72
2021/12/24 03:13:41;;;;;;;;;;;;;;;;;;4394371;32;19984;-72
2021/12/24 03:16:08;;;;;;;;;;;;;;;;;;4394487;32;19980;-72
2021/12/24 03:18:37;;;;;;;;;;;;;;;;;;4381456;32;20399;-71
2021/12/24 03:23:42;;;;;;;;;;;;;;;;;;4393859;32;20041;-72
2021/12/24 03:26:13;;;;;;;;;;;;;;;;;;4382820;32;20085;-72
2021/12/24 03:28:39;;;;;;;;;;;;;;;;;;4368908;32;19973;-71
2021/12/24 03:31:06;;;;;;;;;;;;;;;;;;4368936;32;19976;-72
2021/12/24 03:33:33;;;;;;;;;;;;;;;;;;4394221;32;20044;-73
2021/12/24 03:36:04;;;;;;;;;;;;;;;;;;4368485;32;19970;-72
2021/12/24 03:38:31;;;;;;;;;;;;;;;;;;4369011;32;19982;-73
2021/12/24 03:40:57;;;;;;;;;;;;;;;;;;4380867;32;20460;-72
2021/12/24 03:43:24;;;;;;;;;;;;;;;;;;4393987;32;19985;-71
2021/12/24 03:48:26;;;;;;;;;;;;;;;;;;4393895;32;19977;-71
2021/12/24 03:56:04;;;;;;;;;;;;;;;;;;4408054;32;19988;-71
2021/12/24 03:58:31;;;;;;;;;;;;;;;;;;4393731;32;19997;-72
2021/12/24 04:01:10;;;;;;;;;;;;;;;;;;3851671;37;19952;-71
2021/12/24 04:03:37;;;;;;;;;;;;;;;;;;4423773;32;19992;-72
2021/12/24 04:06:03;;;;;;;;;;;;;;;;;;4422211;32;20070;-72
2021/12/24 04:08:31;;;;;;;;;;;;;;;;;;4393194;32;20437;-71
2021/12/24 04:10:57;;;;;;;;;;;;;;;;;;4380807;32;19973;-72
2021/12/24 04:13:24;;;;;;;;;;;;;;;;;;4405823;32;20037;-72
2021/12/24 04:15:50;;;;;;;;;;;;;;;;;;4419743;32;20079;-72
2021/12/24 04:26:29;;;;;;;;;;;;;;;;;;4407589;32;19973;-71
2021/12/24 04:28:56;;;;;;;;;;;;;;;;;;4392983;32;19982;-71
2021/12/24 04:31:29;;;;;;;;;;;;;;;;;;4405501;32;20057;-72
2021/12/24 04:33:59;;;;;;;;;;;;;;;;;;4393567;32;19969;-72
2021/12/24 04:39:37;;;;;;;;;;;;;;;;;;4419975;32;19989;-72
2021/12/24 05:03:42;;;;;;;;;;;;;;;;;;4393750;32;20386;-70
2021/12/24 05:06:15;;;;;;;;;;;;;;;;;;4405626;32;20377;-71
2021/12/24 05:08:51;;;;;;;;;;;;;;;;;;4404633;32;19980;-72
2021/12/24 05:11:19;;;;;;;;;;;;;;;;;;4387441;32;19980;-72
2021/12/24 05:13:45;;;;;;;;;;;;;;;;;;4382036;32;19977;-72
2021/12/24 05:21:32;;;;;;;;;;;;;;;;;;4382341;32;19981;-71
2021/12/24 05:21:48;;;;;;;;;;;;;;;;;;4398849;32;20360;-72
2021/12/24 05:24:15;;;;;;;;;;;;;;;;;;4394503;32;19981;-72
2021/12/24 05:26:46;;;;;;;;;;;;;;;;;;4369749;32;19981;-73
2021/12/24 05:29:13;;;;;;;;;;;;;;;;;;4382564;32;19969;-72
2021/12/24 05:31:40;;;;;;;;;;;;;;;;;;4382177;32;19985;-72
2021/12/24 05:34:06;;;;;;;;;;;;;;;;;;4408685;32;19989;-72
2021/12/24 05:36:33;;;;;;;;;;;;;;;;;;4394309;32;19978;-71
2021/12/24 05:39:00;;;;;;;;;;;;;;;;;;4394540;32;19977;-72
2021/12/24 05:41:26;;;;;;;;;;;;;;;;;;4408601;32;19996;-71
2021/12/24 05:43:53;;;;;;;;;;;;;;;;;;4381956;32;20403;-71
2021/12/24 05:46:20;;;;;;;;;;;;;;;;;;4381621;32;20446;-72
2021/12/24 05:48:46;;;;;;;;;;;;;;;;;;4394308;32;19993;-72
2021/12/24 05:51:13;;;;;;;;;;;;;;;;;;4394080;32;20077;-73
2021/12/24 05:53:39;;;;;;;;;;;;;;;;;;4381661;32;20043;-72
2021/12/24 05:56:05;;;;;;;;;;;;;;;;;;4394374;32;20412;-73
2021/12/24 05:58:32;;;;;;;;;;;;;;;;;;4378876;32;20001;-73
2021/12/24 06:00:58;;;;;;;;;;;;;;;;;;4379184;32;20000;-71
2021/12/24 06:03:25;;;;;;;;;;;;;;;;;;4381716;32;20069;-69
2021/12/24 06:05:51;;;;;;;;;;;;;;;;;;4400444;32;19989;-69
2021/12/24 06:08:18;;;;;;;;;;;;;;;;;;4390053;32;19981;-70
2021/12/24 06:10:44;;;;;;;;;;;;;;;;;;4411718;32;20014;-73
2021/12/24 06:13:11;;;;;;;;;;;;;;;;;;4389107;32;19993;-69
2021/12/24 06:15:49;;;;;;;;;;;;;;;;;;4377618;32;20639;-66
2021/12/24 06:18:23;;;;;;;;;;;;;;;;;;4385278;32;20379;-69
2021/12/24 06:20:50;;;;;;;;;;;;;;;;;;4383597;32;19973;-67
2021/12/24 06:23:19;;;;;;;;;;;;;;;;;;4365874;32;19979;-65
2021/12/24 06:25:46;;;;;;;;;;;;;;;;;;4385178;32;20399;-69
2021/12/24 06:28:13;;;;;;;;;;;;;;;;;;4380311;32;19989;-66
2021/12/24 06:30:41;;;;;;;;;;;;;;;;;;4395602;32;20529;-66
2021/12/24 06:33:08;;;;;;;;;;;;;;;;;;4397256;32;19985;-67
2021/12/24 06:35:34;;;;;;;;;;;;;;;;;;4384950;32;20001;-66
2021/12/24 06:38:01;;;;;;;;;;;;;;;;;;4414915;32;19964;-66
2021/12/24 06:40:27;;;;;;;;;;;;;;;;;;4384098;32;20405;-70
2021/12/24 06:42:54;;;;;;;;;;;;;;;;;;4367083;32;20359;-73
2021/12/24 06:45:24;;;;;;;;;;;;;;;;;;4363096;32;19996;-67
2021/12/24 06:47:54;;;;;;;;;;;;;;;;;;4386771;32;20008;-69
2021/12/24 06:50:21;;;;;;;;;;;;;;;;;;4379843;32;19985;-67
2021/12/24 06:52:48;;;;;;;;;;;;;;;;;;4397595;32;19992;-68
2021/12/24 06:55:16;;;;;;;;;;;;;;;;;;4384034;32;20049;-68
2021/12/24 06:57:43;;;;;;;;;;;;;;;;;;4392419;32;20077;-68
2021/12/24 07:00:12;;;;;;;;;;;;;;;;;;4368226;32;19997;-67
2021/12/24 07:02:38;;;;;;;;;;;;;;;;;;4378007;32;19996;-67
2021/12/24 07:05:05;;;;;;;;;;;;;;;;;;4390380;32;19985;-68
2021/12/24 07:07:31;;;;;;;;;;;;;;;;;;4402481;32;20033;-68
2021/12/24 07:09:58;;;;;;;;;;;;;;;;;;4371031;32;19981;-70
2021/12/24 07:12:25;;;;;;;;;;;;;;;;;;4382329;32;19989;-65
2021/12/24 07:14:51;;;;;;;;;;;;;;;;;;4399056;32;20009;-70
2021/12/24 07:17:18;;;;;;;;;;;;;;;;;;4384159;32;20429;-68
2021/12/24 07:19:44;;;;;;;;;;;;;;;;;;4383149;32;19997;-67
2021/12/24 07:22:12;;;;;;;;;;;;;;;;;;4393385;32;20053;-70
2021/12/24 07:24:39;;;;;;;;;;;;;;;;;;4394623;32;19980;-69
2021/12/24 07:27:06;;;;;;;;;;;;;;;;;;4382229;32;20070;-69
2021/12/24 07:29:32;;;;;;;;;;;;;;;;;;4383420;32;20043;-71
2021/12/24 07:31:59;;;;;;;;;;;;;;;;;;4382726;32;19981;-77
2021/12/24 07:34:25;;;;;;;;;;;;;;;;;;4364358;32;20038;-70
2021/12/24 07:36:52;;;;;;;;;;;;;;;;;;4392592;32;20035;-72
2021/12/24 07:39:18;;;;;;;;;;;;;;;;;;4380479;32;20393;-70
2021/12/24 07:41:46;;;;;;;;;;;;;;;;;;4367773;32;19981;-69
2021/12/24 07:44:13;;;;;;;;;;;;;;;;;;4367395;32;19993;-70
2021/12/24 07:46:46;;;;;;;;;;;;;;;;;;4358209;32;20375;-71
2021/12/24 07:49:40;;;;;;;;;;;;;;;;;;4396535;32;19997;-70
2021/12/24 07:54:33;;;;;;;;;;;;;;;;;;4387464;32;19980;-71
2021/12/24 07:57:00;;;;;;;;;;;;;;;;;;4408137;32;19984;-70
2021/12/24 07:59:27;;;;;;;;;;;;;;;;;;4375427;32;20056;-72
2021/12/24 08:01:54;;;;;;;;;;;;;;;;;;4394756;32;20355;-70
2021/12/24 08:04:21;;;;;;;;;;;;;;;;;;4380095;32;19989;-73
2021/12/24 08:06:47;;;;;;;;;;;;;;;;;;4377751;32;19993;-69
2021/12/24 08:09:14;;;;;;;;;;;;;;;;;;4370396;32;20056;-68
2021/12/24 08:11:40;;;;;;;;;;;;;;;;;;4369433;32;20392;-70
2021/12/24 08:14:08;;;;;;;;;;;;;;;;;;4385982;32;19975;-70
2021/12/24 08:16:35;;;;;;;;;;;;;;;;;;4376411;32;19998;-69
2021/12/24 08:19:02;;;;;;;;;;;;;;;;;;4390535;32;19976;-71
2021/12/24 08:21:29;;;;;;;;;;;;;;;;;;4401549;32;19989;-71
2021/12/24 08:23:55;;;;;;;;;;;;;;;;;;4380705;32;19989;-69
2021/12/24 08:26:22;;;;;;;;;;;;;;;;;;4375963;32;19978;-72
2021/12/24 08:28:49;;;;;;;;;;;;;;;;;;4380726;32;19964;-69
2021/12/24 08:31:16;;;;;;;;;;;;;;;;;;4373866;32;19977;-69
2021/12/24 08:33:42;;;;;;;;;;;;;;;;;;4382230;32;20048;-70
2021/12/24 08:36:09;;;;;;;;;;;;;;;;;;4387985;32;19988;-71
2021/12/24 08:38:35;;;;;;;;;;;;;;;;;;4370195;32;20015;-73
2021/12/24 08:41:02;;;;;;;;;;;;;;;;;;4384792;32;19977;-70
2021/12/24 08:43:33;;;;;;;;;;;;;;;;;;4387514;32;19997;-69
2021/12/24 08:46:00;;;;;;;;;;;;;;;;;;4362954;32;19974;-66
2021/12/24 08:48:26;;;;;;;;;;;;;;;;;;4406474;32;20388;-67
2021/12/24 08:50:53;;;;;;;;;;;;;;;;;;4395985;32;20015;-66
2021/12/24 08:53:20;;;;;;;;;;;;;;;;;;4391604;32;19990;-66
2021/12/24 08:55:47;;;;;;;;;;;;;;;;;;4389141;32;19985;-67
2021/12/24 08:58:13;;;;;;;;;;;;;;;;;;4401900;32;19961;-69
2021/12/24 09:00:40;;;;;;;;;;;;;;;;;;4384064;32;19985;-71
2021/12/24 09:03:06;;;;;;;;;;;;;;;;;;4384174;32;20367;-69
2021/12/24 09:05:33;;;;;;;;;;;;;;;;;;4397663;32;19977;-68
2021/12/24 09:08:01;;;;;;;;;;;;;;;;;;4397904;32;19972;-66
2021/12/24 09:10:27;;;;;;;;;;;;;;;;;;4399561;32;19981;-69
2021/12/24 09:12:54;;;;;;;;;;;;;;;;;;4390386;32;20409;-69
2021/12/24 09:15:21;;;;;;;;;;;;;;;;;;4383558;32;20053;-70
2021/12/24 09:17:48;;;;;;;;;;;;;;;;;;4380302;32;20454;-69
2021/12/24 09:20:18;;;;;;;;;;;;;;;;;;4370108;32;20028;-67
2021/12/24 09:22:46;;;;;;;;;;;;;;;;;;4372706;32;19970;-68
2021/12/24 09:25:13;;;;;;;;;;;;;;;;;;4392207;32;19980;-68
2021/12/24 09:27:40;;;;;;;;;;;;;;;;;;4414106;32;19987;-67
2021/12/24 09:30:07;;;;;;;;;;;;;;;;;;4408584;32;20012;-68
2021/12/24 09:32:33;;;;;;;;;;;;;;;;;;4378179;32;19997;-69
2021/12/24 09:35:00;;;;;;;;;;;;;;;;;;4374062;32;19979;-70
2021/12/24 09:37:26;;;;;;;;;;;;;;;;;;4401036;32;20388;-69
2021/12/24 09:39:53;;;;;;;;;;;;;;;;;;4387480;32;19984;-74
2021/12/24 09:42:19;;;;;;;;;;;;;;;;;;4392619;32;19988;-71
2021/12/24 09:44:46;;;;;;;;;;;;;;;;;;4400068;32;20403;-69
2021/12/24 09:47:13;;;;;;;;;;;;;;;;;;4384662;32;19977;-69
2021/12/24 09:49:39;;;;;;;;;;;;;;;;;;4411394;32;19984;-70
2021/12/24 09:52:06;;;;;;;;;;;;;;;;;;4414494;32;20028;-70
2021/12/24 09:54:32;;;;;;;;;;;;;;;;;;4394155;32;20414;-70
2021/12/24 09:56:59;;;;;;;;;;;;;;;;;;4383329;32;19969;-70
2021/12/24 09:59:25;;;;;;;;;;;;;;;;;;4379936;32;19970;-68
2021/12/24 10:01:54;;;;;;;;;;;;;;;;;;4381743;32;20034;-70
2021/12/24 10:04:22;;;;;;;;;;;;;;;;;;4361676;32;20029;-70
2021/12/24 10:07:03;;;;;;;;;;;;;;;;;;4384970;32;19990;-71
2021/12/24 10:09:33;;;;;;;;;;;;;;;;;;4382867;32;19981;-70
2021/12/24 10:12:01;;;;;;;;;;;;;;;;;;4372848;32;19987;-70
2021/12/24 10:14:32;;;;;;;;;;;;;;;;;;4361878;32;19965;-71
2021/12/24 10:16:59;;;;;;;;;;;;;;;;;;4379773;32;19993;-69
2021/12/24 10:19:25;;;;;;;;;;;;;;;;;;4371817;32;19978;-71
2021/12/24 10:21:59;;;;;;;;;;;;;;;;;;4381923;32;19981;-71
2021/12/24 10:24:26;;;;;;;;;;;;;;;;;;4366657;32;20391;-70
2021/12/24 10:26:54;;;;;;;;;;;;;;;;;;4367282;32;20003;-71
2021/12/24 10:29:27;;;;;;;;;;;;;;;;;;4366522;32;20008;-70
2021/12/24 10:31:55;;;;;;;;;;;;;;;;;;4354889;32;20000;-70
2021/12/24 10:34:24;;;;;;;;;;;;;;;;;;4354673;32;20014;-70
2021/12/24 10:36:58;;;;;;;;;;;;;;;;;;4394030;32;20045;-70
2021/12/24 10:39:32;;;;;;;;;;;;;;;;;;4386128;32;20005;-70
2021/12/24 10:41:59;;;;;;;;;;;;;;;;;;4378965;32;20039;-70
2021/12/24 10:44:27;;;;;;;;;;;;;;;;;;4354103;32;19973;-70
2021/12/24 10:46:57;;;;;;;;;;;;;;;;;;4366552;32;19994;-70
2021/12/24 10:49:48;;;;;;;;;;;;;;;;;;4393352;32;19982;-70
2021/12/24 10:52:32;;;;;;;;;;;;;;;;;;4378855;32;20000;-69
2021/12/24 10:55:00;;;;;;;;;;;;;;;;;;4356490;32;19986;-70
2021/12/24 10:57:28;;;;;;;;;;;;;;;;;;4369325;32;20340;-70
2021/12/24 10:59:56;;;;;;;;;;;;;;;;;;4378406;32;19996;-70
2021/12/24 11:02:27;;;;;;;;;;;;;;;;;;4378606;32;19982;-70
2021/12/24 11:04:54;;;;;;;;;;;;;;;;;;4369596;32;20061;-70
2021/12/24 11:07:32;;;;;;;;;;;;;;;;;;4393237;32;19969;-70
2021/12/24 11:10:11;;;;;;;;;;;;;;;;;;4366118;32;19978;-70
2021/12/24 11:12:45;;;;;;;;;;;;;;;;;;4365978;32;20422;-70
2021/12/24 11:15:32;;;;;;;;;;;;;;;;;;4370002;32;19985;-70
2021/12/24 11:17:59;;;;;;;;;;;;;;;;;;4390850;32;19977;-71
2021/12/24 11:20:26;;;;;;;;;;;;;;;;;;4376646;32;20406;-72
2021/12/24 11:23:01;;;;;;;;;;;;;;;;;;4380545;32;19986;-67
2021/12/24 11:25:38;;;;;;;;;;;;;;;;;;4370425;32;19997;-68
2021/12/24 11:28:04;;;;;;;;;;;;;;;;;;4378114;32;19977;-65
2021/12/24 11:30:31;;;;;;;;;;;;;;;;;;4381892;32;20029;-66
2021/12/24 11:32:58;;;;;;;;;;;;;;;;;;4386203;32;20033;-65
2021/12/24 11:35:25;;;;;;;;;;;;;;;;;;4359089;32;19980;-64
2021/12/24 11:37:53;;;;;;;;;;;;;;;;;;4384382;32;19973;-64
2021/12/24 11:40:21;;;;;;;;;;;;;;;;;;4383131;32;19984;-65
2021/12/24 11:42:51;;;;;;;;;;;;;;;;;;4363367;32;20046;-66
2021/12/24 11:45:19;;;;;;;;;;;;;;;;;;4371642;32;19972;-65
2021/12/24 11:47:45;;;;;;;;;;;;;;;;;;4383418;32;19969;-64
2021/12/24 11:50:12;;;;;;;;;;;;;;;;;;4362490;32;19989;-67
2021/12/24 11:52:40;;;;;;;;;;;;;;;;;;4366648;32;20049;-69
2021/12/24 11:55:07;;;;;;;;;;;;;;;;;;4396822;32;20085;-68
2021/12/24 11:57:33;;;;;;;;;;;;;;;;;;4390051;32;19985;-65
2021/12/24 12:00:10;;;;;;;;;;;;;;;;;;4378029;32;20053;-66
2021/12/24 12:02:38;;;;;;;;;;;;;;;;;;4370578;32;19976;-70
2021/12/24 12:05:14;;;;;;;;;;;;;;;;;;4370911;32;20008;-71
2021/12/24 12:07:40;;;;;;;;;;;;;;;;;;4398244;32;20359;-69
2021/12/24 12:10:07;;;;;;;;;;;;;;;;;;4395439;32;19981;-70
2021/12/24 12:12:35;;;;;;;;;;;;;;;;;;4390272;32;20506;-69
2021/12/24 12:15:21;;;;;;;;;;;;;;;;;;4385028;32;19981;-69
2021/12/24 12:17:51;;;;;;;;;;;;;;;;;;4379257;32;19970;-70
2021/12/24 12:20:35;;;;;;;;;;;;;;;;;;4388407;32;19993;-68
2021/12/24 12:23:02;;;;;;;;;;;;;;;;;;4394614;32;20040;-66
2021/12/24 12:25:29;;;;;;;;;;;;;;;;;;4390287;32;19965;-66
2021/12/24 12:27:56;;;;;;;;;;;;;;;;;;4402167;32;19981;-68
2021/12/24 12:30:37;;;;;;;;;;;;;;;;;;4407570;32;20428;-66
2021/12/24 12:33:03;;;;;;;;;;;;;;;;;;4381758;32;19995;-67
2021/12/24 12:35:38;;;;;;;;;;;;;;;;;;4415162;32;20038;-68
2021/12/24 12:38:21;;;;;;;;;;;;;;;;;;4389065;32;20024;-66
2021/12/24 12:40:48;;;;;;;;;;;;;;;;;;4410074;32;19973;-69
2021/12/24 12:43:15;;;;;;;;;;;;;;;;;;4415955;32;20000;-72
2021/12/24 12:45:45;;;;;;;;;;;;;;;;;;4387878;32;19985;-69
2021/12/24 12:48:12;;;;;;;;;;;;;;;;;;4375355;32;19973;-69
2021/12/24 12:50:40;;;;;;;;;;;;;;;;;;4389251;32;19993;-68
2021/12/24 12:53:22;;;;;;;;;;;;;;;;;;4382760;32;19998;-67
2021/12/24 12:55:50;;;;;;;;;;;;;;;;;;4382241;32;19985;-68
2021/12/24 12:58:21;;;;;;;;;;;;;;;;;;4382860;32;20055;-71
2021/12/24 13:01:07;;;;;;;;;;;;;;;;;;4390091;32;19989;-70
2021/12/24 13:03:54;;;;;;;;;;;;;;;;;;4398088;32;19973;-69
2021/12/24 13:06:20;;;;;;;;;;;;;;;;;;4387415;32;20058;-70
2021/12/24 13:08:47;;;;;;;;;;;;;;;;;;4377972;32;19974;-68
2021/12/24 13:11:15;;;;;;;;;;;;;;;;;;4393913;32;20440;-68
2021/12/24 13:13:42;;;;;;;;;;;;;;;;;;4407582;32;19977;-68
2021/12/24 13:16:16;;;;;;;;;;;;;;;;;;4397221;32;19984;-68
2021/12/24 13:18:47;;;;;;;;;;;;;;;;;;4390762;32;19985;-68
2021/12/24 13:24:13;;;;;;;;;;;;;;;;;;4362182;32;19985;-70
2021/12/24 13:26:43;;;;;;;;;;;;;;;;;;4392759;32;19997;-74
2021/12/24 13:29:16;;;;;;;;;;;;;;;;;;4378105;32;20472;-72
2021/12/24 13:31:51;;;;;;;;;;;;;;;;;;4379014;32;19998;-72
2021/12/24 13:34:18;;;;;;;;;;;;;;;;;;4383657;32;20412;-72
2021/12/24 13:36:45;;;;;;;;;;;;;;;;;;4360143;32;20035;-73
2021/12/24 13:39:12;;;;;;;;;;;;;;;;;;4391845;32;20135;-71
2021/12/24 13:41:39;;;;;;;;;;;;;;;;;;4370172;32;20047;-72
2021/12/24 13:44:06;;;;;;;;;;;;;;;;;;4381275;32;20109;-68
2021/12/24 13:46:36;;;;;;;;;;;;;;;;;;4360775;32;19975;-69
2021/12/24 13:49:20;;;;;;;;;;;;;;;;;;4391746;32;20013;-70
2021/12/24 13:54:36;;;;;;;;;;;;;;;;;;4381323;32;20412;-70
2021/12/24 13:57:04;;;;;;;;;;;;;;;;;;4403521;32;19973;-69
2021/12/24 13:59:31;;;;;;;;;;;;;;;;;;4392232;32;20399;-69
2021/12/24 14:01:58;;;;;;;;;;;;;;;;;;4381717;32;20090;-71
2021/12/24 14:04:24;;;;;;;;;;;;;;;;;;4398999;32;20959;-70
2021/12/24 14:06:59;;;;;;;;;;;;;;;;;;4382486;32;19972;-72
2021/12/24 14:09:29;;;;;;;;;;;;;;;;;;4372477;32;19982;-72
2021/12/24 14:11:56;;;;;;;;;;;;;;;;;;4373717;32;19969;-71
2021/12/24 14:14:29;;;;;;;;;;;;;;;;;;4375626;32;19977;-71
2021/12/24 14:17:23;;;;;;;;;;;;;;;;;;4375595;32;20056;-72
2021/12/24 14:20:03;;;;;;;;;;;;;;;;;;4385669;32;19973;-70
2021/12/24 14:22:31;;;;;;;;;;;;;;;;;;4375742;32;20061;-71
2021/12/24 14:25:01;;;;;;;;;;;;;;;;;;4367806;32;19981;-73
2021/12/24 14:27:31;;;;;;;;;;;;;;;;;;4365199;32;20043;-72
2021/12/24 14:30:03;;;;;;;;;;;;;;;;;;4378536;32;20037;-72
2021/12/24 14:32:34;;;;;;;;;;;;;;;;;;4387096;32;21342;-67
2021/12/24 14:35:20;;;;;;;;;;;;;;;;;;4381580;32;20017;-68
2021/12/24 14:38:08;;;;;;;;;;;;;;;;;;4377424;32;20054;-70
2021/12/24 14:40:35;;;;;;;;;;;;;;;;;;4403765;32;20011;-71
2021/12/24 14:43:09;;;;;;;;;;;;;;;;;;4383805;32;20024;-73
2021/12/24 14:45:37;;;;;;;;;;;;;;;;;;4373674;32;19978;-73
2021/12/24 14:48:17;;;;;;;;;;;;;;;;;;4378396;32;20001;-71
2021/12/24 14:50:52;;;;;;;;;;;;;;;;;;4376709;32;19982;-72
2021/12/24 14:53:19;;;;;;;;;;;;;;;;;;4376835;32;20017;-72
2021/12/24 14:55:49;;;;;;;;;;;;;;;;;;4394510;32;20064;-72
2021/12/24 14:58:29;;;;;;;;;;;;;;;;;;4370127;32;20000;-73
2021/12/24 15:00:56;;;;;;;;;;;;;;;;;;4391237;32;19990;-72
2021/12/24 15:03:23;;;;;;;;;;;;;;;;;;4390372;32;19970;-72
2021/12/24 15:05:50;;;;;;;;;;;;;;;;;;4378316;32;19981;-72
2021/12/24 15:08:21;;;;;;;;;;;;;;;;;;4378590;32;19977;-72
2021/12/24 15:11:02;;;;;;;;;;;;;;;;;;4378490;32;19973;-73
2021/12/24 15:13:29;;;;;;;;;;;;;;;;;;4365472;32;20364;-72
2021/12/24 15:15:56;;;;;;;;;;;;;;;;;;4353371;32;19982;-72
2021/12/24 15:18:22;;;;;;;;;;;;;;;;;;4365261;32;19972;-72
2021/12/24 15:20:49;;;;;;;;;;;;;;;;;;4365855;32;19976;-72
2021/12/24 15:23:15;;;;;;;;;;;;;;;;;;4390550;32;20424;-73
2021/12/24 15:25:42;;;;;;;;;;;;;;;;;;4377626;32;19978;-72
2021/12/24 15:28:10;;;;;;;;;;;;;;;;;;4378290;32;19981;-71
2021/12/24 15:30:37;;;;;;;;;;;;;;;;;;4365809;32;19973;-72
2021/12/24 15:33:04;;;;;;;;;;;;;;;;;;4379606;32;20392;-72
2021/12/24 15:35:32;;;;;;;;;;;;;;;;;;4378518;32;19977;-73
2021/12/24 15:37:59;;;;;;;;;;;;;;;;;;4379223;32;19997;-73
2021/12/24 15:40:25;;;;;;;;;;;;;;;;;;4353497;32;19970;-73
2021/12/24 15:42:53;;;;;;;;;;;;;;;;;;4391904;32;19989;-73
2021/12/24 15:45:20;;;;;;;;;;;;;;;;;;4378607;32;19989;-73
2021/12/24 15:47:46;;;;;;;;;;;;;;;;;;4378334;32;20543;-73
2021/12/24 15:50:13;;;;;;;;;;;;;;;;;;4378199;32;20325;-73
2021/12/24 15:52:43;;;;;;;;;;;;;;;;;;4378552;32;20368;-73
2021/12/24 15:55:09;;;;;;;;;;;;;;;;;;4377533;32;19989;-73
2021/12/24 15:57:35;;;;;;;;;;;;;;;;;;4352852;32;19992;-73
2021/12/24 16:00:03;;;;;;;;;;;;;;;;;;4389871;32;19986;-73
2021/12/24 16:02:29;;;;;;;;;;;;;;;;;;4378113;32;19986;-73
2021/12/24 16:04:56;;;;;;;;;;;;;;;;;;4365340;32;19973;-72
2021/12/24 16:07:22;;;;;;;;;;;;;;;;;;4391637;32;20054;-73
2021/12/24 16:09:49;;;;;;;;;;;;;;;;;;4377691;32;19988;-72
2021/12/24 16:12:15;;;;;;;;;;;;;;;;;;4377938;32;20007;-72
2021/12/24 16:14:43;;;;;;;;;;;;;;;;;;4377892;32;20325;-72
2021/12/24 16:17:10;;;;;;;;;;;;;;;;;;4378385;32;19976;-71
2021/12/24 16:19:36;;;;;;;;;;;;;;;;;;4365390;32;19977;-71
2021/12/24 16:22:03;;;;;;;;;;;;;;;;;;4378101;32;19985;-73
2021/12/24 16:24:30;;;;;;;;;;;;;;;;;;4377818;32;20003;-72
2021/12/24 16:26:56;;;;;;;;;;;;;;;;;;4391771;32;19993;-72
2021/12/24 16:29:42;;;;;;;;;;;;;;;;;;4393204;32;19977;-72
2021/12/24 16:32:09;;;;;;;;;;;;;;;;;;4383903;32;19974;-72
2021/12/24 16:34:35;;;;;;;;;;;;;;;;;;4383214;32;19992;-73
2021/12/24 16:37:02;;;;;;;;;;;;;;;;;;4379228;32;19977;-71
2021/12/24 16:39:28;;;;;;;;;;;;;;;;;;4377893;32;19974;-72
2021/12/24 16:44:17;;;;;;;;;;;;;;;;;;3811734;37;19978;-72
2021/12/24 16:46:43;;;;;;;;;;;;;;;;;;4376384;32;19981;-73
2021/12/24 16:49:10;;;;;;;;;;;;;;;;;;4376039;32;20487;-72
2021/12/24 16:51:36;;;;;;;;;;;;;;;;;;4388546;32;20050;-72
2021/12/24 16:54:03;;;;;;;;;;;;;;;;;;4376000;32;19969;-73
2021/12/24 16:56:30;;;;;;;;;;;;;;;;;;4388194;32;19989;-73
2021/12/24 16:58:57;;;;;;;;;;;;;;;;;;4389883;32;20472;-73
2021/12/24 17:01:23;;;;;;;;;;;;;;;;;;4388333;32;20070;-72
2021/12/24 17:03:51;;;;;;;;;;;;;;;;;;4375877;32;19988;-72
2021/12/24 17:06:17;;;;;;;;;;;;;;;;;;4389373;32;19974;-73
2021/12/24 17:08:44;;;;;;;;;;;;;;;;;;4387809;32;20361;-72
2021/12/24 17:11:10;;;;;;;;;;;;;;;;;;4390089;32;19985;-72
2021/12/24 17:13:37;;;;;;;;;;;;;;;;;;4388463;32;20002;-72
2021/12/24 17:18:19;;;;;;;;;;;;;;;;;;3852356;37;19947;-72
2021/12/24 17:20:46;;;;;;;;;;;;;;;;;;4406492;32;19977;-73
2021/12/24 17:23:12;;;;;;;;;;;;;;;;;;4405755;32;19981;-72
2021/12/24 17:25:39;;;;;;;;;;;;;;;;;;4406493;32;20005;-72
2021/12/24 17:28:05;;;;;;;;;;;;;;;;;;4420547;32;19981;-72
2021/12/24 17:30:32;;;;;;;;;;;;;;;;;;4420187;32;19973;-72
2021/12/24 17:33:03;;;;;;;;;;;;;;;;;;4406141;32;20367;-72
2021/12/24 17:35:29;;;;;;;;;;;;;;;;;;4406391;32;19977;-73
2021/12/24 17:37:56;;;;;;;;;;;;;;;;;;4405731;32;20073;-72
2021/12/24 17:40:22;;;;;;;;;;;;;;;;;;4380733;32;19989;-72
2021/12/24 17:42:49;;;;;;;;;;;;;;;;;;4405870;32;19973;-72
2021/12/24 17:45:16;;;;;;;;;;;;;;;;;;4419931;32;19973;-72
2021/12/24 17:47:42;;;;;;;;;;;;;;;;;;4419767;32;19982;-72
2021/12/24 17:50:10;;;;;;;;;;;;;;;;;;4405685;32;19973;-72
2021/12/24 17:52:38;;;;;;;;;;;;;;;;;;4406041;32;19984;-73
2021/12/24 17:55:05;;;;;;;;;;;;;;;;;;4405431;32;19980;-72
2021/12/24 17:57:31;;;;;;;;;;;;;;;;;;4392809;32;19977;-72
2021/12/24 17:59:58;;;;;;;;;;;;;;;;;;4419732;32;19981;-72
2021/12/24 18:02:24;;;;;;;;;;;;;;;;;;4405590;32;19996;-72
2021/12/24 18:04:51;;;;;;;;;;;;;;;;;;4420962;32;19977;-72
2021/12/24 18:07:20;;;;;;;;;;;;;;;;;;4397526;32;19993;-72
2021/12/24 18:09:46;;;;;;;;;;;;;;;;;;4406010;32;19976;-72
2021/12/24 18:12:13;;;;;;;;;;;;;;;;;;4419769;32;19995;-74
2021/12/24 18:14:40;;;;;;;;;;;;;;;;;;4405915;32;19980;-72
2021/12/24 18:17:07;;;;;;;;;;;;;;;;;;4419233;32;19996;-72
2021/12/24 18:19:33;;;;;;;;;;;;;;;;;;4419764;32;20076;-72
2021/12/24 18:22:00;;;;;;;;;;;;;;;;;;4406177;32;19987;-73
2021/12/24 18:24:26;;;;;;;;;;;;;;;;;;4405323;32;19989;-72
2021/12/24 18:26:53;;;;;;;;;;;;;;;;;;4380378;32;19977;-73
2021/12/24 18:29:19;;;;;;;;;;;;;;;;;;4410333;32;19984;-72
2021/12/24 18:31:46;;;;;;;;;;;;;;;;;;4408759;32;20341;-73
2021/12/24 18:36:25;;;;;;;;;;;;;;;;;;3857795;37;20375;-72
2021/12/24 18:38:54;;;;;;;;;;;;;;;;;;4405848;32;19981;-72
2021/12/24 18:41:20;;;;;;;;;;;;;;;;;;4420138;32;20381;-72
2021/12/24 18:43:47;;;;;;;;;;;;;;;;;;4406121;32;20418;-72
2021/12/24 18:46:13;;;;;;;;;;;;;;;;;;4406031;32;20049;-71